Time,TemperatureF,DewpointF,PressureIn,WindDirection,WindDirectionDegrees,WindSpeedMPH,WindSpeedGustMPH,Humidity,HourlyPrecipIn,Conditions,Clouds,dailyrainin,SoftwareType,DateUTC
2013-06-30 00:12:00,63.7,62.0,29.78,SW,221,0.0,0.0,95,0.00,,,0.00,weatherlink.com 1.10,2013-06-30 05:12:00,
2013-06-30 00:27:00,63.5,62.0,29.78,SW,221,0.0,0.0,94,0.00,,,0.00,weatherlink.com 1.10,2013-06-30 05:27:00,
2013-06-30 00:42:00,63.3,62.0,29.78,SW,219,0.0,0.0,94,0.00,,,0.00,weatherlink.com 1.10,2013-06-30 05:42:00,
2013-06-30 00:57:00,62.9,62.0,29.78,SW,220,0.0,0.0,95,0.00,,,0.00,weatherlink.com 1.10,2013-06-30 05:57:00,
2013-06-30 01:12:00,62.8,61.0,29.78,SW,219,0.0,0.0,95,0.00,,,0.00,weatherlink.com 1.10,2013-06-30 06:12:00,
2013-06-30 01:27:00,62.7,61.0,29.79,SW,219,0.0,0.0,95,0.00,,,0.00,weatherlink.com 1.10,2013-06-30 06:27:00,
2013-06-30 01:42:00,62.8,62.0,29.79,SW,229,0.0,0.0,96,0.00,,,0.00,weatherlink.com 1.10,2013-06-30 06:42:00,
2013-06-30 01:57:00,62.6,61.0,29.79,SW,217,0.0,0.0,95,0.00,,,0.00,weatherlink.com 1.10,2013-06-30 06:57:00,
2013-06-30 02:12:00,62.7,61.0,29.79,West,271,0.0,0.0,95,0.00,,,0.00,weatherlink.com 1.10,2013-06-30 07:12:00,
2013-06-30 02:27:00,62.4,61.0,29.79,West,270,0.0,0.0,95,0.00,,,0.00,weatherlink.com 1.10,2013-06-30 07:27:00,
2013-06-30 02:42:00,62.1,61.0,29.79,WSW,257,0.0,0.0,95,0.00,,,0.00,weatherlink.com 1.10,2013-06-30 07:42:00,
2013-06-30 02:57:00,62.1,61.0,29.79,WSW,257,0.0,0.0,96,0.00,,,0.00,weatherlink.com 1.10,2013-06-30 07:57:00,
2013-06-30 03:12:00,62.2,61.0,29.79,WNW,287,0.0,2.0,96,0.00,,,0.00,weatherlink.com 1.10,2013-06-30 08:12:00,
2013-06-30 03:27:00,62.0,61.0,29.79,WNW,286,0.0,0.0,96,0.00,,,0.00,weatherlink.com 1.10,2013-06-30 08:27:00,
2013-06-30 03:42:00,61.5,60.0,29.79,West,273,0.0,0.0,96,0.00,,,0.00,weatherlink.com 1.10,2013-06-30 08:42:00,
2013-06-30 03:57:00,60.9,60.0,29.79,West,273,0.0,0.0,96,0.00,,,0.00,weatherlink.com 1.10,2013-06-30 08:57:00,
2013-06-30 04:12:00,60.9,60.0,29.80,West,274,0.0,0.0,96,0.00,,,0.00,weatherlink.com 1.10,2013-06-30 09:12:00,
2013-06-30 04:27:00,60.7,60.0,29.80,West,274,0.0,0.0,96,0.00,,,0.00,weatherlink.com 1.10,2013-06-30 09:27:00,
2013-06-30 04:42:00,60.4,59.0,29.81,ENE,68,0.0,2.0,96,0.00,,,0.00,weatherlink.com 1.10,2013-06-30 09:42:00,
2013-06-30 04:57:00,59.7,59.0,29.81,ENE,68,0.0,0.0,96,0.00,,,0.00,weatherlink.com 1.10,2013-06-30 09:57:00,
2013-06-30 05:12:00,59.4,58.0,29.82,ENE,67,0.0,0.0,96,0.00,,,0.00,weatherlink.com 1.10,2013-06-30 10:12:00,
2013-06-30 05:27:00,59.3,59.0,29.82,West,273,0.0,1.0,97,0.00,,,0.00,weatherlink.com 1.10,2013-06-30 10:27:00,
2013-06-30 05:42:00,59.6,59.0,29.82,West,273,0.0,0.0,97,0.00,,,0.00,weatherlink.com 1.10,2013-06-30 10:42:00,
2013-06-30 05:58:00,59.7,59.0,29.83,West,273,0.0,0.0,97,0.01,,,0.01,weatherlink.com 1.10,2013-06-30 10:58:00,
2013-06-30 06:13:00,60.1,59.0,29.83,West,272,0.0,0.0,97,0.01,,,0.01,weatherlink.com 1.10,2013-06-30 11:13:00,
2013-06-30 06:28:00,60.8,60.0,29.84,South,185,0.0,0.0,97,0.01,,,0.01,weatherlink.com 1.10,2013-06-30 11:28:00,
2013-06-30 06:43:00,61.5,60.0,29.84,NNE,12,0.0,0.0,96,0.01,,,0.01,weatherlink.com 1.10,2013-06-30 11:43:00,
2013-06-30 06:58:00,62.2,61.0,29.85,NNE,13,0.0,0.0,96,0.00,,,0.01,weatherlink.com 1.10,2013-06-30 11:58:00,
2013-06-30 07:13:00,62.7,61.0,29.85,NNE,23,0.0,0.0,95,0.00,,,0.01,weatherlink.com 1.10,2013-06-30 12:13:00,
2013-06-30 07:28:00,63.1,61.0,29.85,NNE,29,0.0,0.0,93,0.00,,,0.01,weatherlink.com 1.10,2013-06-30 12:28:00,
2013-06-30 07:43:00,63.9,62.0,29.85,WSW,256,0.0,2.0,92,0.00,,,0.01,weatherlink.com 1.10,2013-06-30 12:43:00,
2013-06-30 07:58:00,64.7,62.0,29.86,SE,146,1.0,2.0,90,0.00,,,0.01,weatherlink.com 1.10,2013-06-30 12:58:00,
2013-06-30 08:13:00,64.7,62.0,29.86,North,355,0.0,1.0,89,0.00,,,0.01,weatherlink.com 1.10,2013-06-30 13:13:00,
2013-06-30 08:28:00,65.0,61.0,29.87,NNE,30,0.0,3.0,88,0.00,,,0.01,weatherlink.com 1.10,2013-06-30 13:28:00,
2013-06-30 08:43:00,65.2,61.0,29.87,NNE,29,0.0,2.0,87,0.00,,,0.01,weatherlink.com 1.10,2013-06-30 13:43:00,
2013-06-30 08:58:00,65.6,61.0,29.87,SW,229,0.0,1.0,86,0.00,,,0.01,weatherlink.com 1.10,2013-06-30 13:58:00,
2013-06-30 09:13:00,67.0,62.0,29.87,NE,49,0.0,2.0,85,0.00,,,0.01,weatherlink.com 1.10,2013-06-30 14:13:00,
2013-06-30 09:28:00,69.4,64.0,29.87,ESE,105,1.0,4.0,84,0.00,,,0.01,weatherlink.com 1.10,2013-06-30 14:28:00,
2013-06-30 09:43:00,70.2,63.0,29.88,NE,36,1.0,3.0,77,0.00,,,0.01,weatherlink.com 1.10,2013-06-30 14:43:00,
2013-06-30 09:58:00,71.6,64.0,29.88,NNE,27,1.0,6.0,77,0.00,,,0.01,weatherlink.com 1.10,2013-06-30 14:58:00,
2013-06-30 10:13:00,71.7,64.0,29.88,NE,47,2.0,3.0,76,0.00,,,0.01,weatherlink.com 1.10,2013-06-30 15:13:00,
2013-06-30 10:28:00,72.5,64.0,29.88,NNE,29,3.0,4.0,74,0.00,,,0.01,weatherlink.com 1.10,2013-06-30 15:28:00,
2013-06-30 10:43:00,74.2,67.0,29.88,NE,34,2.0,5.0,79,0.00,,,0.01,weatherlink.com 1.10,2013-06-30 15:43:00,
2013-06-30 10:59:00,74.5,65.0,29.88,NNE,25,1.0,3.0,73,0.00,,,0.01,weatherlink.com 1.10,2013-06-30 15:59:00,
2013-06-30 11:13:00,74.9,65.0,29.89,NE,41,4.0,5.0,70,0.00,,,0.01,weatherlink.com 1.10,2013-06-30 16:13:00,
2013-06-30 11:28:00,73.9,64.0,29.89,NE,41,5.0,8.0,70,0.00,,,0.01,weatherlink.com 1.10,2013-06-30 16:28:00,
2013-06-30 11:43:00,75.0,63.0,29.89,NE,51,2.0,4.0,67,0.00,,,0.01,weatherlink.com 1.10,2013-06-30 16:43:00,
2013-06-30 11:58:00,74.6,64.0,29.90,NNW,338,2.0,5.0,69,0.00,,,0.01,weatherlink.com 1.10,2013-06-30 16:58:00,
2013-06-30 12:13:00,74.7,64.0,29.89,NE,34,0.0,3.0,69,0.00,,,0.01,weatherlink.com 1.10,2013-06-30 17:13:00,
2013-06-30 12:28:00,74.7,63.0,29.90,NE,34,1.0,4.0,68,0.00,,,0.01,weatherlink.com 1.10,2013-06-30 17:28:00,
2013-06-30 12:44:00,75.2,63.0,29.89,NE,51,1.0,4.0,67,0.00,,,0.01,weatherlink.com 1.10,2013-06-30 17:44:00,
2013-06-30 12:59:00,76.4,64.0,29.89,NNE,33,2.0,4.0,66,0.00,,,0.01,weatherlink.com 1.10,2013-06-30 17:59:00,
2013-06-30 13:14:00,77.8,65.0,29.89,NE,37,1.0,4.0,64,0.00,,,0.01,weatherlink.com 1.10,2013-06-30 18:14:00,
2013-06-30 13:29:00,77.3,64.0,29.89,NE,36,2.0,3.0,63,0.00,,,0.01,weatherlink.com 1.10,2013-06-30 18:29:00,
2013-06-30 13:44:00,75.9,64.0,29.89,NNE,25,1.0,3.0,66,0.00,,,0.01,weatherlink.com 1.10,2013-06-30 18:44:00,
2013-06-30 13:59:00,76.0,63.0,29.89,NE,46,1.0,3.0,64,0.00,,,0.01,weatherlink.com 1.10,2013-06-30 18:59:00,
2013-06-30 14:14:00,75.9,64.0,29.89,NE,46,0.0,3.0,66,0.00,,,0.01,weatherlink.com 1.10,2013-06-30 19:14:00,
2013-06-30 14:29:00,75.9,64.0,29.89,South,178,1.0,3.0,66,0.00,,,0.01,weatherlink.com 1.10,2013-06-30 19:29:00,
2013-06-30 14:44:00,77.6,64.0,29.89,NE,47,0.0,2.0,63,0.00,,,0.01,weatherlink.com 1.10,2013-06-30 19:44:00,
2013-06-30 14:59:00,78.0,65.0,29.89,SE,129,1.0,3.0,65,0.00,,,0.01,weatherlink.com 1.10,2013-06-30 19:59:00,
2013-06-30 15:14:00,77.2,63.0,29.89,NE,44,0.0,2.0,62,0.00,,,0.01,weatherlink.com 1.10,2013-06-30 20:14:00,
2013-06-30 15:29:00,76.7,64.0,29.89,NNE,20,0.0,2.0,65,0.00,,,0.01,weatherlink.com 1.10,2013-06-30 20:29:00,
2013-06-30 15:44:00,77.0,65.0,29.89,North,1,0.0,2.0,66,0.00,,,0.01,weatherlink.com 1.10,2013-06-30 20:44:00,
2013-06-30 15:59:00,78.0,65.0,29.89,ENE,77,0.0,2.0,64,0.00,,,0.01,weatherlink.com 1.10,2013-06-30 20:59:00,
2013-06-30 16:14:00,78.6,64.0,29.89,NNW,328,0.0,0.0,61,0.00,,,0.01,weatherlink.com 1.10,2013-06-30 21:14:00,
2013-06-30 16:29:00,78.8,66.0,29.89,NNE,30,2.0,3.0,64,0.00,,,0.01,weatherlink.com 1.10,2013-06-30 21:29:00,
2013-06-30 16:44:00,80.2,65.0,29.88,ESE,115,0.0,5.0,60,0.00,,,0.01,weatherlink.com 1.10,2013-06-30 21:44:00,
2013-06-30 16:59:00,80.7,65.0,29.89,NNE,33,2.0,4.0,60,0.00,,,0.01,weatherlink.com 1.10,2013-06-30 21:59:00,
2013-06-30 17:14:00,79.5,63.0,29.89,NE,36,3.0,3.0,57,0.00,,,0.01,weatherlink.com 1.10,2013-06-30 22:14:00,
2013-06-30 17:29:00,80.4,64.0,29.90,ENE,60,3.0,4.0,58,0.00,,,0.01,weatherlink.com 1.10,2013-06-30 22:29:00,
2013-06-30 17:44:00,79.7,64.0,29.90,SE,136,2.0,5.0,59,0.00,,,0.01,weatherlink.com 1.10,2013-06-30 22:44:00,
2013-06-30 17:59:00,80.3,64.0,29.90,SE,134,1.0,3.0,58,0.00,,,0.01,weatherlink.com 1.10,2013-06-30 22:59:00,
2013-06-30 18:14:00,79.4,64.0,29.91,ENE,67,2.0,5.0,60,0.00,,,0.01,weatherlink.com 1.10,2013-06-30 23:14:00,
2013-06-30 18:29:00,76.6,64.0,29.91,ENE,67,1.0,6.0,66,0.00,,,0.01,weatherlink.com 1.10,2013-06-30 23:29:00,
2013-06-30 18:44:00,75.8,64.0,29.91,SE,141,0.0,3.0,68,0.00,,,0.01,weatherlink.com 1.10,2013-06-30 23:44:00,
2013-06-30 18:59:00,75.6,65.0,29.91,SSE,153,0.0,1.0,69,0.00,,,0.01,weatherlink.com 1.10,2013-06-30 23:59:00,
2013-06-30 19:14:00,74.7,63.0,29.92,NE,36,0.0,3.0,67,0.00,,,0.01,weatherlink.com 1.10,2013-07-01 00:14:00,
2013-06-30 19:29:00,75.3,62.0,29.92,NNE,18,0.0,2.0,64,0.00,,,0.01,weatherlink.com 1.10,2013-07-01 00:29:00,
2013-06-30 19:44:00,75.5,62.0,29.92,NE,40,0.0,1.0,63,0.00,,,0.01,weatherlink.com 1.10,2013-07-01 00:44:00,
2013-06-30 19:59:00,73.7,61.0,29.92,NE,39,0.0,1.0,65,0.00,,,0.01,weatherlink.com 1.10,2013-07-01 00:59:00,
2013-06-30 20:14:00,72.6,60.0,29.92,ENE,71,0.0,1.0,65,0.00,,,0.01,weatherlink.com 1.10,2013-07-01 01:14:00,
2013-06-30 20:29:00,71.3,59.0,29.93,ENE,73,0.0,0.0,65,0.00,,,0.01,weatherlink.com 1.10,2013-07-01 01:29:00,
2013-06-30 20:44:00,70.1,59.0,29.93,ENE,73,0.0,0.0,67,0.00,,,0.01,weatherlink.com 1.10,2013-07-01 01:44:00,
2013-06-30 20:59:00,68.7,58.0,29.93,ENE,74,0.0,0.0,68,0.00,,,0.01,weatherlink.com 1.10,2013-07-01 01:59:00,
2013-06-30 21:14:00,67.1,57.0,29.94,ENE,73,0.0,0.0,70,0.00,,,0.01,weatherlink.com 1.10,2013-07-01 02:14:00,
2013-06-30 21:29:00,65.7,58.0,29.95,ENE,73,0.0,0.0,75,0.00,,,0.01,weatherlink.com 1.10,2013-07-01 02:29:00,
2013-06-30 21:44:00,65.0,58.0,29.96,ENE,74,0.0,0.0,77,0.00,,,0.01,weatherlink.com 1.10,2013-07-01 02:44:00,
2013-06-30 21:59:00,64.8,58.0,29.96,ENE,74,0.0,0.0,78,0.00,,,0.01,weatherlink.com 1.10,2013-07-01 02:59:00,
2013-06-30 22:14:00,63.9,58.0,29.97,ENE,74,0.0,0.0,80,0.00,,,0.01,weatherlink.com 1.10,2013-07-01 03:14:00,
2013-06-30 22:29:00,63.4,58.0,29.97,ENE,73,0.0,0.0,83,0.00,,,0.01,weatherlink.com 1.10,2013-07-01 03:29:00,
2013-06-30 22:44:00,63.0,59.0,29.97,ENE,73,0.0,0.0,85,0.00,,,0.01,weatherlink.com 1.10,2013-07-01 03:44:00,
2013-06-30 22:59:00,62.7,59.0,29.98,ENE,74,0.0,0.0,86,0.00,,,0.01,weatherlink.com 1.10,2013-07-01 03:59:00,
2013-06-30 23:14:00,63.3,58.0,29.98,ENE,74,0.0,0.0,83,0.00,,,0.01,weatherlink.com 1.10,2013-07-01 04:14:00,
2013-06-30 23:29:00,62.8,57.0,29.98,SSE,166,0.0,0.0,82,0.00,,,0.01,weatherlink.com 1.10,2013-07-01 04:29:00,
2013-06-30 23:44:00,62.8,56.0,29.98,SSE,163,0.0,1.0,78,0.00,,,0.01,weatherlink.com 1.10,2013-07-01 04:44:00,
2013-06-30 23:59:00,62.7,55.0,29.98,SSE,160,0.0,0.0,76,0.00,,,0.00,weatherlink.com 1.10,2013-07-01 04:59:00,